createdAt,value
2023-03-15T00:01:27.362Z,44.62
2023-03-15T00:03:28.966Z,44.91
2023-03-15T00:05:32.040Z,44.74
2023-03-15T00:07:33.556Z,45.12
2023-03-15T00:09:35.090Z,45.34
2023-03-15T00:11:36.673Z,45.30
2023-03-15T00:13:38.125Z,45.11
2023-03-15T00:15:49.719Z,45.11
2023-03-15T00:17:51.252Z,45.09
2023-03-15T00:19:52.728Z,45.71
2023-03-15T00:21:54.222Z,45.65
2023-03-15T00:23:56.111Z,45.80
2023-03-15T00:25:57.811Z,45.28
2023-03-15T00:27:59.237Z,45.39
2023-03-15T00:30:00.722Z,45.76
2023-03-15T00:32:02.303Z,46.52
2023-03-15T00:34:03.763Z,46.51
2023-03-15T00:36:06.675Z,46.27
2023-03-15T00:38:08.421Z,47.33
2023-03-15T00:40:10.225Z,47.13
2023-03-15T00:42:12.206Z,47.08
2023-03-15T00:44:13.784Z,46.72
2023-03-15T00:46:15.689Z,47.02
2023-03-15T00:48:17.175Z,46.79
2023-03-15T00:50:19.008Z,46.79
2023-03-15T00:52:22.400Z,47.13
2023-03-15T00:54:24.925Z,46.76
2023-03-15T00:56:27.671Z,46.60
2023-03-15T00:58:29.104Z,47.00
2023-03-15T01:00:30.547Z,46.95
2023-03-15T01:02:32.074Z,46.99
2023-03-15T01:04:33.535Z,46.90
2023-03-15T01:06:35.082Z,47.22
2023-03-15T01:08:36.578Z,47.22
2023-03-15T01:10:38.137Z,46.89
2023-03-15T01:12:39.697Z,47.00
2023-03-15T01:14:41.219Z,47.08
2023-03-15T01:16:42.728Z,47.12
2023-03-15T01:18:44.343Z,47.10
2023-03-15T01:20:45.996Z,47.06
2023-03-15T01:22:47.433Z,47.72
2023-03-15T01:24:48.907Z,47.94
2023-03-15T01:26:50.428Z,48.51
2023-03-15T01:28:51.915Z,48.83
2023-03-15T01:30:53.440Z,48.24
2023-03-15T01:32:54.914Z,48.30
2023-03-15T01:34:56.842Z,48.21
2023-03-15T01:36:58.391Z,47.92
2023-03-15T01:38:59.878Z,47.82
2023-03-15T01:41:01.316Z,47.98
2023-03-15T01:43:02.843Z,48.96
2023-03-15T01:45:04.483Z,49.46
2023-03-15T01:47:06.071Z,49.18
2023-03-15T01:49:08.504Z,49.01
2023-03-15T01:51:16.025Z,48.56
2023-03-15T01:53:17.497Z,49.60
2023-03-15T01:55:19.812Z,49.81
2023-03-15T01:57:23.744Z,49.78
2023-03-15T01:59:27.530Z,50.01
2023-03-15T02:01:29.118Z,50.41
2023-03-15T02:03:31.764Z,51.43
2023-03-15T02:05:34.382Z,51.58
2023-03-15T02:07:35.837Z,51.04
2023-03-15T02:09:41.790Z,50.79
2023-03-15T02:11:43.276Z,50.60
2023-03-15T02:13:44.711Z,50.28
2023-03-15T02:15:47.135Z,49.71
2023-03-15T02:17:48.678Z,49.54
2023-03-15T02:20:02.698Z,48.95
2023-03-15T02:22:12.262Z,48.93
2023-03-15T02:24:32.261Z,49.18
2023-03-15T02:26:43.364Z,49.17
2023-03-15T02:28:44.911Z,49.94
2023-03-15T02:30:46.601Z,50.01
2023-03-15T02:32:48.478Z,49.53
2023-03-15T02:34:50.007Z,50.05
2023-03-15T02:36:52.572Z,50.21
2023-03-15T02:38:54.527Z,50.77
2023-03-15T02:40:55.991Z,50.96
2023-03-15T02:43:17.711Z,52.12
2023-03-15T02:45:19.200Z,52.36
2023-03-15T02:47:21.783Z,51.99
2023-03-15T02:49:24.240Z,51.43
2023-03-15T02:51:27.339Z,51.52
2023-03-15T02:53:31.796Z,51.41
2023-03-15T02:55:33.305Z,51.67
2023-03-15T02:57:34.835Z,51.62
2023-03-15T02:59:36.296Z,52.20
2023-03-15T03:01:37.827Z,51.75
2023-03-15T03:03:40.426Z,51.37
2023-03-15T03:05:41.977Z,51.29
2023-03-15T03:07:43.567Z,51.47
2023-03-15T03:09:45.148Z,51.10
2023-03-15T03:11:46.704Z,50.77
2023-03-15T03:13:48.164Z,50.73
2023-03-15T03:15:50.228Z,50.84
2023-03-15T03:17:51.728Z,50.52
2023-03-15T03:19:53.242Z,50.83
2023-03-15T03:21:54.983Z,50.37
2023-03-15T03:23:56.534Z,50.19
2023-03-15T03:25:58.141Z,50.50
2023-03-15T03:27:59.641Z,50.48
2023-03-15T03:30:01.171Z,50.19
2023-03-15T03:32:02.745Z,50.22
2023-03-15T03:34:04.275Z,50.56
2023-03-15T03:36:06.032Z,50.36
2023-03-15T03:38:08.025Z,50.31
2023-03-15T03:40:10.062Z,50.29
2023-03-15T03:42:11.671Z,49.98
2023-03-15T03:44:13.280Z,49.60
2023-03-15T03:46:14.921Z,50.04
2023-03-15T03:48:16.405Z,50.69
2023-03-15T03:50:17.855Z,50.61
2023-03-15T03:52:19.333Z,51.31
2023-03-15T03:54:21.475Z,51.14
2023-03-15T03:56:23.019Z,51.29
2023-03-15T03:58:24.486Z,51.84
2023-03-15T04:00:25.928Z,51.63
2023-03-15T04:02:27.422Z,51.71
2023-03-15T04:04:28.994Z,51.81
2023-03-15T04:06:31.262Z,51.15
2023-03-15T04:08:32.724Z,51.69
2023-03-15T04:10:35.159Z,51.83
2023-03-15T04:12:36.597Z,52.15
2023-03-15T04:14:38.144Z,52.10
2023-03-15T04:16:39.733Z,51.54
2023-03-15T04:18:41.287Z,51.50
2023-03-15T04:20:47.065Z,51.25
2023-03-15T04:22:49.764Z,51.42
2023-03-15T04:24:51.332Z,50.89
2023-03-15T04:26:57.884Z,51.36
2023-03-15T04:28:59.473Z,51.11
2023-03-15T04:31:01.090Z,51.31
2023-03-15T04:33:03.665Z,51.64
2023-03-15T04:35:05.833Z,52.14
2023-03-15T04:37:07.371Z,52.45
2023-03-15T04:39:10.043Z,52.20
2023-03-15T04:41:11.737Z,51.91
2023-03-15T04:43:13.196Z,51.58
2023-03-15T04:45:14.704Z,51.88
2023-03-15T04:47:16.218Z,51.59
2023-03-15T04:49:17.813Z,52.05
2023-03-15T04:51:19.238Z,52.74
2023-03-15T04:53:20.756Z,52.79
2023-03-15T04:55:22.298Z,51.77
2023-03-15T04:57:24.371Z,52.46
2023-03-15T04:59:25.882Z,52.48
2023-03-15T05:01:31.392Z,52.57
2023-03-15T05:03:32.877Z,52.08
2023-03-15T05:05:34.354Z,52.32
2023-03-15T05:07:36.007Z,52.05
2023-03-15T05:09:39.721Z,52.03
2023-03-15T05:11:41.418Z,51.45
2023-03-15T05:13:42.981Z,49.99
2023-03-15T05:15:44.490Z,49.68
2023-03-15T05:17:46.500Z,50.07
2023-03-15T05:19:48.776Z,50.09
2023-03-15T05:21:50.325Z,49.57
2023-03-15T05:23:51.782Z,49.82
2023-03-15T05:25:54.169Z,49.82
2023-03-15T05:27:55.727Z,49.56
2023-03-15T05:29:57.235Z,49.65
2023-03-15T05:31:58.745Z,49.86
2023-03-15T05:34:04.389Z,49.64
2023-03-15T05:36:05.845Z,49.35
2023-03-15T05:38:07.274Z,48.40
2023-03-15T05:40:09.513Z,47.53
2023-03-15T05:42:11.052Z,47.64
2023-03-15T05:44:12.498Z,46.81
2023-03-15T05:46:14.007Z,46.48
2023-03-15T05:48:16.677Z,45.67
2023-03-15T05:50:18.198Z,45.57
2023-03-15T05:52:19.754Z,45.48
2023-03-15T05:54:21.257Z,44.49
2023-03-15T05:56:22.733Z,45.28
2023-03-15T05:58:24.256Z,44.66
2023-03-15T06:00:25.926Z,44.80
2023-03-15T06:02:27.425Z,45.35
2023-03-15T06:04:28.973Z,45.36
2023-03-15T06:06:33.288Z,45.23
2023-03-15T06:08:35.252Z,44.97
2023-03-15T06:10:37.708Z,44.79
2023-03-15T06:12:39.302Z,45.31
2023-03-15T06:14:40.711Z,45.04
2023-03-15T06:16:42.381Z,44.76
2023-03-15T06:18:43.879Z,44.95
2023-03-15T06:20:45.352Z,44.72
2023-03-15T06:22:46.793Z,44.50
2023-03-15T06:24:48.279Z,44.64
2023-03-15T06:26:49.855Z,44.37
2023-03-15T06:28:51.380Z,44.22
2023-03-15T06:30:53.016Z,43.78
2023-03-15T06:32:54.928Z,43.92
2023-03-15T06:34:56.493Z,44.42
2023-03-15T06:36:57.996Z,44.20
2023-03-15T06:38:59.523Z,44.09
2023-03-15T06:41:01.331Z,43.48
2023-03-15T06:43:05.981Z,43.63
2023-03-15T06:45:08.563Z,42.86
2023-03-15T06:47:10.739Z,42.87
2023-03-15T06:49:12.240Z,42.70
2023-03-15T06:51:13.768Z,42.41
2023-03-15T06:53:15.680Z,42.49
2023-03-15T06:55:18.541Z,42.35
2023-03-15T06:57:20.010Z,42.46
2023-03-15T06:59:21.592Z,41.82
2023-03-15T07:01:23.124Z,41.06
2023-03-15T07:03:24.710Z,41.77
2023-03-15T07:05:26.225Z,41.67
2023-03-15T07:07:27.687Z,41.23
2023-03-15T07:09:29.115Z,40.99
2023-03-15T07:11:30.633Z,41.22
2023-03-15T07:13:32.162Z,41.21
2023-03-15T07:15:33.637Z,41.51
2023-03-15T07:17:35.309Z,41.54
2023-03-15T07:19:41.397Z,41.54
2023-03-15T07:21:48.180Z,41.05
2023-03-15T07:23:49.646Z,40.54
2023-03-15T07:25:55.090Z,40.65
2023-03-15T07:27:57.048Z,39.90
2023-03-15T07:29:58.607Z,40.03
2023-03-15T07:32:01.520Z,39.79
2023-03-15T07:34:03.167Z,39.30
2023-03-15T07:36:05.329Z,39.72
2023-03-15T07:38:06.793Z,39.83
2023-03-15T07:40:12.621Z,40.31
2023-03-15T07:42:14.179Z,40.40
2023-03-15T07:44:15.661Z,40.83
2023-03-15T07:46:17.295Z,40.18
2023-03-15T07:48:18.890Z,39.70
2023-03-15T07:50:20.429Z,39.74
2023-03-15T07:52:22.003Z,39.82
2023-03-15T07:54:23.526Z,40.07
2023-03-15T07:56:24.974Z,40.24
2023-03-15T07:58:26.419Z,41.92
2023-03-15T08:00:28.452Z,41.68
2023-03-15T08:02:30.690Z,41.75
2023-03-15T08:04:32.784Z,41.93
2023-03-15T08:06:35.412Z,42.23
2023-03-15T08:08:36.940Z,42.16
2023-03-15T08:10:38.413Z,42.65
2023-03-15T08:12:42.114Z,42.06
2023-03-15T08:14:43.638Z,41.41
2023-03-15T08:16:45.239Z,41.32
2023-03-15T08:18:46.910Z,40.91
2023-03-15T08:20:48.550Z,41.05
2023-03-15T08:22:51.398Z,40.92
2023-03-15T08:24:53.406Z,41.62
2023-03-15T08:26:54.916Z,40.74
2023-03-15T08:28:56.428Z,40.82
2023-03-15T08:30:57.938Z,40.43
2023-03-15T08:32:59.461Z,41.07
2023-03-15T08:35:00.961Z,40.46
2023-03-15T08:37:02.509Z,40.75
2023-03-15T08:39:05.632Z,40.22
2023-03-15T08:41:07.126Z,40.73
2023-03-15T08:43:08.612Z,40.46
2023-03-15T08:45:10.511Z,40.59
2023-03-15T08:47:12.097Z,40.79
2023-03-15T08:49:13.536Z,40.21
2023-03-15T08:51:15.037Z,39.96
2023-03-15T08:53:16.528Z,39.71
2023-03-15T08:55:18.045Z,39.22
2023-03-15T08:57:19.568Z,39.74
2023-03-15T08:59:31.403Z,40.12
2023-03-15T09:01:33.689Z,41.31
2023-03-15T09:03:35.152Z,40.75
2023-03-15T09:05:36.711Z,41.34
2023-03-15T09:07:39.262Z,41.55
2023-03-15T09:09:40.829Z,41.48
2023-03-15T09:11:42.324Z,41.61
2023-03-15T09:13:43.848Z,41.24
2023-03-15T09:15:45.335Z,41.33
2023-03-15T09:17:46.891Z,41.55
2023-03-15T09:19:48.395Z,41.59
2023-03-15T09:21:49.828Z,41.31
2023-03-15T09:23:51.290Z,41.11
2023-03-15T09:25:52.815Z,40.81
2023-03-15T09:27:54.442Z,41.36
2023-03-15T09:29:55.890Z,41.12
2023-03-15T09:31:57.519Z,40.96
2023-03-15T09:33:59.690Z,40.82
2023-03-15T09:36:01.232Z,40.30
2023-03-15T09:38:03.996Z,40.24
2023-03-15T09:40:07.374Z,40.01
2023-03-15T09:42:35.184Z,39.64
2023-03-15T09:44:51.511Z,38.88
2023-03-15T09:46:56.005Z,38.57
2023-03-15T09:49:02.838Z,39.04
2023-03-15T09:51:09.054Z,38.97
2023-03-15T09:53:10.672Z,38.87
2023-03-15T09:55:25.319Z,38.93
2023-03-15T09:57:31.896Z,39.50
2023-03-15T09:59:35.190Z,39.35
2023-03-15T10:01:37.857Z,39.50
2023-03-15T10:03:42.619Z,39.71
2023-03-15T10:05:45.180Z,39.68
2023-03-15T10:07:46.679Z,39.77
2023-03-15T10:09:48.302Z,39.78
2023-03-15T10:12:08.634Z,39.81
2023-03-15T10:14:31.016Z,40.01
2023-03-15T10:16:41.445Z,40.97
2023-03-15T10:18:47.197Z,40.89
2023-03-15T10:20:53.723Z,40.89
2023-03-15T10:23:05.912Z,40.25
2023-03-15T10:25:23.486Z,40.40
2023-03-15T10:27:36.825Z,40.40
2023-03-15T10:29:38.535Z,40.10
2023-03-15T10:31:44.395Z,39.43
2023-03-15T10:33:46.242Z,39.63
2023-03-15T10:35:47.761Z,39.31
2023-03-15T10:37:49.439Z,39.59
2023-03-15T10:39:53.456Z,39.99
2023-03-15T10:41:54.972Z,39.20
2023-03-15T10:43:58.291Z,39.63
2023-03-15T10:46:03.995Z,39.73
2023-03-15T10:48:05.484Z,39.91
2023-03-15T10:50:07.133Z,40.05
2023-03-15T10:52:25.481Z,40.48
2023-03-15T10:54:26.965Z,40.19
2023-03-15T10:56:29.509Z,40.35
2023-03-15T10:58:40.307Z,40.35
2023-03-15T11:00:44.376Z,40.12
2023-03-15T11:02:53.086Z,40.05
2023-03-15T11:05:03.840Z,39.95
2023-03-15T11:07:08.031Z,40.15
2023-03-15T11:09:14.599Z,39.95
2023-03-15T11:11:16.093Z,39.79
2023-03-15T11:13:20.695Z,39.46
2023-03-15T11:15:22.255Z,39.57
2023-03-15T11:17:24.741Z,39.94
2023-03-15T11:19:27.953Z,39.65
2023-03-15T11:21:33.534Z,39.99
2023-03-15T11:23:36.605Z,39.82
2023-03-15T11:25:38.145Z,39.63
2023-03-15T11:27:40.180Z,39.45
2023-03-15T11:29:48.830Z,39.19
2023-03-15T11:31:51.193Z,39.16
2023-03-15T11:33:59.962Z,40.49
2023-03-15T11:36:03.570Z,41.38
2023-03-15T11:38:15.230Z,42.46
2023-03-15T11:40:26.339Z,43.80
2023-03-15T11:42:32.944Z,44.69
2023-03-15T11:44:34.483Z,45.56
2023-03-15T11:46:54.742Z,45.22
2023-03-15T11:49:16.470Z,45.10
2023-03-15T11:51:18.201Z,45.25
2023-03-15T11:53:19.622Z,44.50
2023-03-15T11:55:23.622Z,43.92
2023-03-15T11:57:38.589Z,44.25
2023-03-15T11:59:40.572Z,44.80
2023-03-15T12:02:01.575Z,44.87
2023-03-15T12:04:35.538Z,45.27
2023-03-15T12:06:37.675Z,45.65
2023-03-15T12:08:50.796Z,46.16
2023-03-15T12:10:52.755Z,45.64
2023-03-15T12:12:57.679Z,45.26
2023-03-15T12:15:02.014Z,45.45
2023-03-15T12:17:22.152Z,45.45
2023-03-15T12:19:23.675Z,46.11
2023-03-15T12:21:35.311Z,46.25
2023-03-15T12:23:47.226Z,46.83
2023-03-15T12:25:55.044Z,46.87
2023-03-15T12:27:57.005Z,46.51
2023-03-15T12:30:01.787Z,46.93
2023-03-15T12:32:06.238Z,46.99
2023-03-15T12:34:12.258Z,47.18
2023-03-15T12:36:19.513Z,47.11
2023-03-15T12:38:22.287Z,46.71
2023-03-15T12:40:59.367Z,46.25
2023-03-15T12:43:01.365Z,46.16
2023-03-15T12:45:18.190Z,45.90
2023-03-15T12:47:19.657Z,46.16
2023-03-15T12:49:23.978Z,46.03
2023-03-15T12:51:41.408Z,45.89
2023-03-15T12:53:44.225Z,45.71
2023-03-15T12:55:45.984Z,45.53
2023-03-15T12:57:48.330Z,45.42
2023-03-15T12:59:59.338Z,45.23
2023-03-15T13:02:01.252Z,45.40
2023-03-15T13:04:02.690Z,45.49
2023-03-15T13:06:16.336Z,45.25
2023-03-15T13:08:21.178Z,45.47
2023-03-15T13:10:35.070Z,45.38
2023-03-15T13:12:48.199Z,44.93
2023-03-15T13:14:52.588Z,44.93
2023-03-15T13:17:01.989Z,44.72
2023-03-15T13:19:18.878Z,44.41
2023-03-15T13:21:24.843Z,44.10
2023-03-15T13:23:30.134Z,44.45
2023-03-15T13:25:54.877Z,44.33
2023-03-15T13:27:57.115Z,44.18
2023-03-15T13:29:58.870Z,43.90
2023-03-15T13:32:06.717Z,43.65
2023-03-15T13:34:13.033Z,43.48
2023-03-15T13:36:19.404Z,43.14
2023-03-15T13:38:20.893Z,43.09
2023-03-15T13:40:22.361Z,43.16
2023-03-15T13:42:24.280Z,43.31
2023-03-15T13:44:26.090Z,43.84
2023-03-15T13:46:29.725Z,44.35
2023-03-15T13:48:32.763Z,44.98
2023-03-15T13:50:34.223Z,45.62
2023-03-15T13:52:35.742Z,45.73
2023-03-15T13:54:37.241Z,46.17
2023-03-15T13:56:49.254Z,46.98
2023-03-15T13:58:52.107Z,47.39
2023-03-15T14:00:58.273Z,47.79
2023-03-15T14:03:00.945Z,47.98
2023-03-15T14:05:05.294Z,48.07
2023-03-15T14:07:19.744Z,48.21
